sensor_id;sensor_type;location;lat;lon;timestamp;P1;durP1;ratioP1;P2;durP2;ratioP2
78670;SDS011;68277;52.724;6.516;2023-03-14T00:01:38;9.77;;;1.98;;
78670;SDS011;68277;52.724;6.516;2023-03-14T00:04:05;17.88;;;3.30;;
78670;SDS011;68277;52.724;6.516;2023-03-14T00:06:31;11.68;;;2.30;;
78670;SDS011;68277;52.724;6.516;2023-03-14T00:08:56;15.20;;;2.35;;
78670;SDS011;68277;52.724;6.516;2023-03-14T00:11:22;14.77;;;2.95;;
78670;SDS011;68277;52.724;6.516;2023-03-14T00:13:48;8.65;;;2.60;;
78670;SDS011;68277;52.724;6.516;2023-03-14T00:16:17;13.32;;;2.72;;
78670;SDS011;68277;52.724;6.516;2023-03-14T00:18:43;10.32;;;2.42;;
78670;SDS011;68277;52.724;6.516;2023-03-14T00:21:09;11.85;;;2.72;;
78670;SDS011;68277;52.724;6.516;2023-03-14T00:23:37;14.85;;;1.92;;
78670;SDS011;68277;52.724;6.516;2023-03-14T00:26:04;8.65;;;2.13;;
78670;SDS011;68277;52.724;6.516;2023-03-14T00:28:35;13.77;;;2.22;;
78670;SDS011;68277;52.724;6.516;2023-03-14T00:31:07;14.70;;;2.65;;
78670;SDS011;68277;52.724;6.516;2023-03-14T00:33:35;13.05;;;2.00;;
78670;SDS011;68277;52.724;6.516;2023-03-14T00:36:11;12.55;;;2.28;;
78670;SDS011;68277;52.724;6.516;2023-03-14T00:38:39;8.70;;;2.33;;
78670;SDS011;68277;52.724;6.516;2023-03-14T00:41:23;9.05;;;2.45;;
78670;SDS011;68277;52.724;6.516;2023-03-14T00:43:49;7.70;;;2.28;;
78670;SDS011;68277;52.724;6.516;2023-03-14T00:46:16;17.45;;;3.55;;
78670;SDS011;68277;52.724;6.516;2023-03-14T00:48:43;14.77;;;2.83;;
78670;SDS011;68277;52.724;6.516;2023-03-14T00:51:10;9.98;;;2.92;;
78670;SDS011;68277;52.724;6.516;2023-03-14T00:53:36;10.05;;;3.42;;
78670;SDS011;68277;52.724;6.516;2023-03-14T00:56:04;5.45;;;2.75;;
78670;SDS011;68277;52.724;6.516;2023-03-14T00:58:31;7.50;;;2.55;;
78670;SDS011;68277;52.724;6.516;2023-03-14T01:00:57;11.85;;;3.55;;
78670;SDS011;68277;52.724;6.516;2023-03-14T01:03:23;10.52;;;2.70;;
78670;SDS011;68277;52.724;6.516;2023-03-14T01:05:49;13.35;;;2.58;;
78670;SDS011;68277;52.724;6.516;2023-03-14T01:08:15;13.20;;;2.60;;
78670;SDS011;68277;52.724;6.516;2023-03-14T01:10:40;10.70;;;2.67;;
78670;SDS011;68277;52.724;6.516;2023-03-14T01:13:06;10.85;;;3.17;;
78670;SDS011;68277;52.724;6.516;2023-03-14T01:15:35;7.55;;;2.53;;
78670;SDS011;68277;52.724;6.516;2023-03-14T01:18:01;9.98;;;2.33;;
78670;SDS011;68277;52.724;6.516;2023-03-14T01:20:27;9.50;;;2.63;;
78670;SDS011;68277;52.724;6.516;2023-03-14T01:22:53;11.98;;;2.63;;
78670;SDS011;68277;52.724;6.516;2023-03-14T01:25:19;8.85;;;2.58;;
78670;SDS011;68277;52.724;6.516;2023-03-14T01:27:44;12.60;;;3.05;;
78670;SDS011;68277;52.724;6.516;2023-03-14T01:30:11;8.07;;;2.38;;
78670;SDS011;68277;52.724;6.516;2023-03-14T01:32:38;8.70;;;2.22;;
78670;SDS011;68277;52.724;6.516;2023-03-14T01:35:04;9.30;;;2.42;;
78670;SDS011;68277;52.724;6.516;2023-03-14T01:37:31;9.30;;;2.30;;
78670;SDS011;68277;52.724;6.516;2023-03-14T01:39:57;8.07;;;2.28;;
78670;SDS011;68277;52.724;6.516;2023-03-14T01:42:23;6.35;;;1.85;;
78670;SDS011;68277;52.724;6.516;2023-03-14T01:44:49;11.77;;;2.25;;
78670;SDS011;68277;52.724;6.516;2023-03-14T01:47:23;10.35;;;2.30;;
78670;SDS011;68277;52.724;6.516;2023-03-14T01:49:51;5.72;;;2.30;;
78670;SDS011;68277;52.724;6.516;2023-03-14T01:52:28;14.35;;;2.33;;
78670;SDS011;68277;52.724;6.516;2023-03-14T01:55:04;8.75;;;3.13;;
78670;SDS011;68277;52.724;6.516;2023-03-14T01:57:36;8.13;;;2.33;;
78670;SDS011;68277;52.724;6.516;2023-03-14T02:00:10;8.23;;;2.58;;
78670;SDS011;68277;52.724;6.516;2023-03-14T02:02:46;12.55;;;2.28;;
78670;SDS011;68277;52.724;6.516;2023-03-14T02:05:19;13.10;;;3.25;;
78670;SDS011;68277;52.724;6.516;2023-03-14T02:07:56;8.90;;;2.50;;
78670;SDS011;68277;52.724;6.516;2023-03-14T02:10:30;8.38;;;1.90;;
78670;SDS011;68277;52.724;6.516;2023-03-14T02:13:01;8.60;;;2.10;;
78670;SDS011;68277;52.724;6.516;2023-03-14T02:15:52;5.68;;;1.60;;
78670;SDS011;68277;52.724;6.516;2023-03-14T02:18:38;13.73;;;2.58;;
78670;SDS011;68277;52.724;6.516;2023-03-14T02:21:27;8.07;;;1.73;;
78670;SDS011;68277;52.724;6.516;2023-03-14T02:29:45;7.05;;;2.05;;
78670;SDS011;68277;52.724;6.516;2023-03-14T02:32:23;6.72;;;2.05;;
78670;SDS011;68277;52.724;6.516;2023-03-14T02:34:52;9.20;;;2.00;;
78670;SDS011;68277;52.724;6.516;2023-03-14T02:37:23;7.38;;;2.30;;
78670;SDS011;68277;52.724;6.516;2023-03-14T02:39:53;4.28;;;1.45;;
78670;SDS011;68277;52.724;6.516;2023-03-14T02:42:18;3.50;;;1.55;;
78670;SDS011;68277;52.724;6.516;2023-03-14T02:44:52;7.75;;;1.40;;
78670;SDS011;68277;52.724;6.516;2023-03-14T02:47:20;5.50;;;1.52;;
78670;SDS011;68277;52.724;6.516;2023-03-14T02:49:52;4.00;;;1.52;;
78670;SDS011;68277;52.724;6.516;2023-03-14T02:52:24;5.43;;;1.60;;
78670;SDS011;68277;52.724;6.516;2023-03-14T02:54:50;4.30;;;1.45;;
78670;SDS011;68277;52.724;6.516;2023-03-14T02:57:16;6.30;;;1.70;;
78670;SDS011;68277;52.724;6.516;2023-03-14T02:59:41;3.20;;;2.17;;
78670;SDS011;68277;52.724;6.516;2023-03-14T03:02:13;4.25;;;1.67;;
78670;SDS011;68277;52.724;6.516;2023-03-14T03:04:39;4.18;;;1.90;;
78670;SDS011;68277;52.724;6.516;2023-03-14T03:07:04;5.63;;;2.05;;
78670;SDS011;68277;52.724;6.516;2023-03-14T03:09:30;4.47;;;1.58;;
78670;SDS011;68277;52.724;6.516;2023-03-14T03:11:56;6.03;;;1.65;;
78670;SDS011;68277;52.724;6.516;2023-03-14T03:14:24;7.80;;;1.90;;
78670;SDS011;68277;52.724;6.516;2023-03-14T03:16:53;13.52;;;2.40;;
78670;SDS011;68277;52.724;6.516;2023-03-14T03:19:19;5.75;;;2.03;;
78670;SDS011;68277;52.724;6.516;2023-03-14T03:21:46;7.57;;;2.03;;
78670;SDS011;68277;52.724;6.516;2023-03-14T03:24:13;4.88;;;1.60;;
78670;SDS011;68277;52.724;6.516;2023-03-14T03:26:39;4.20;;;1.95;;
78670;SDS011;68277;52.724;6.516;2023-03-14T03:29:07;6.25;;;2.03;;
78670;SDS011;68277;52.724;6.516;2023-03-14T03:31:33;6.28;;;2.00;;
78670;SDS011;68277;52.724;6.516;2023-03-14T03:33:59;6.40;;;2.03;;
78670;SDS011;68277;52.724;6.516;2023-03-14T03:36:25;8.52;;;1.95;;
78670;SDS011;68277;52.724;6.516;2023-03-14T03:38:51;8.55;;;2.40;;
78670;SDS011;68277;52.724;6.516;2023-03-14T03:41:17;7.38;;;1.83;;
78670;SDS011;68277;52.724;6.516;2023-03-14T03:43:47;10.40;;;2.70;;
78670;SDS011;68277;52.724;6.516;2023-03-14T03:46:15;6.32;;;2.10;;
78670;SDS011;68277;52.724;6.516;2023-03-14T03:48:40;5.40;;;2.00;;
78670;SDS011;68277;52.724;6.516;2023-03-14T03:51:06;8.20;;;2.47;;
78670;SDS011;68277;52.724;6.516;2023-03-14T03:53:33;6.40;;;1.80;;
78670;SDS011;68277;52.724;6.516;2023-03-14T03:56:00;7.53;;;1.75;;
78670;SDS011;68277;52.724;6.516;2023-03-14T03:58:26;7.70;;;1.80;;
78670;SDS011;68277;52.724;6.516;2023-03-14T04:00:52;2.88;;;1.25;;
78670;SDS011;68277;52.724;6.516;2023-03-14T04:03:17;3.03;;;1.38;;
78670;SDS011;68277;52.724;6.516;2023-03-14T04:05:43;8.18;;;1.80;;
78670;SDS011;68277;52.724;6.516;2023-03-14T04:08:09;7.75;;;2.10;;
78670;SDS011;68277;52.724;6.516;2023-03-14T04:10:36;5.47;;;1.67;;
78670;SDS011;68277;52.724;6.516;2023-03-14T04:13:11;5.20;;;2.10;;
78670;SDS011;68277;52.724;6.516;2023-03-14T04:15:38;5.82;;;2.70;;
78670;SDS011;68277;52.724;6.516;2023-03-14T04:18:10;7.10;;;1.90;;
78670;SDS011;68277;52.724;6.516;2023-03-14T04:20:36;10.10;;;2.38;;
78670;SDS011;68277;52.724;6.516;2023-03-14T04:23:02;12.48;;;3.10;;
78670;SDS011;68277;52.724;6.516;2023-03-14T04:25:28;17.13;;;3.25;;
78670;SDS011;68277;52.724;6.516;2023-03-14T04:27:56;7.70;;;1.80;;
78670;SDS011;68277;52.724;6.516;2023-03-14T04:30:25;5.13;;;2.28;;
78670;SDS011;68277;52.724;6.516;2023-03-14T04:32:54;10.50;;;2.58;;
78670;SDS011;68277;52.724;6.516;2023-03-14T04:35:23;6.10;;;2.10;;
78670;SDS011;68277;52.724;6.516;2023-03-14T04:37:52;4.65;;;2.30;;
78670;SDS011;68277;52.724;6.516;2023-03-14T04:42:45;10.20;;;3.13;;
78670;SDS011;68277;52.724;6.516;2023-03-14T04:45:11;7.53;;;2.42;;
78670;SDS011;68277;52.724;6.516;2023-03-14T04:47:40;11.73;;;2.47;;
78670;SDS011;68277;52.724;6.516;2023-03-14T04:50:09;7.40;;;2.90;;
78670;SDS011;68277;52.724;6.516;2023-03-14T04:52:35;9.43;;;2.58;;
78670;SDS011;68277;52.724;6.516;2023-03-14T04:55:03;5.88;;;2.38;;
78670;SDS011;68277;52.724;6.516;2023-03-14T04:57:29;8.90;;;2.88;;
78670;SDS011;68277;52.724;6.516;2023-03-14T04:59:55;11.90;;;3.13;;
78670;SDS011;68277;52.724;6.516;2023-03-14T05:02:38;4.35;;;2.47;;
78670;SDS011;68277;52.724;6.516;2023-03-14T05:05:30;4.97;;;2.05;;
78670;SDS011;68277;52.724;6.516;2023-03-14T05:08:27;5.57;;;3.45;;
78670;SDS011;68277;52.724;6.516;2023-03-14T05:11:16;7.45;;;2.22;;
78670;SDS011;68277;52.724;6.516;2023-03-14T05:14:16;3.58;;;2.00;;
78670;SDS011;68277;52.724;6.516;2023-03-14T05:16:56;12.73;;;2.70;;
78670;SDS011;68277;52.724;6.516;2023-03-14T05:19:37;5.93;;;2.15;;
78670;SDS011;68277;52.724;6.516;2023-03-14T05:22:23;13.23;;;2.88;;
78670;SDS011;68277;52.724;6.516;2023-03-14T05:25:12;11.73;;;2.53;;
78670;SDS011;68277;52.724;6.516;2023-03-14T05:28:09;5.43;;;2.20;;
78670;SDS011;68277;52.724;6.516;2023-03-14T05:30:52;6.55;;;2.47;;
78670;SDS011;68277;52.724;6.516;2023-03-14T05:33:41;8.93;;;2.35;;
78670;SDS011;68277;52.724;6.516;2023-03-14T05:36:26;8.65;;;2.50;;
78670;SDS011;68277;52.724;6.516;2023-03-14T05:39:25;7.05;;;2.10;;
78670;SDS011;68277;52.724;6.516;2023-03-14T05:42:10;9.35;;;2.00;;
78670;SDS011;68277;52.724;6.516;2023-03-14T05:45:03;12.90;;;2.20;;
78670;SDS011;68277;52.724;6.516;2023-03-14T05:47:47;9.73;;;2.30;;
78670;SDS011;68277;52.724;6.516;2023-03-14T05:50:39;7.90;;;1.98;;
78670;SDS011;68277;52.724;6.516;2023-03-14T05:53:27;11.95;;;2.13;;
78670;SDS011;68277;52.724;6.516;2023-03-14T05:56:29;3.70;;;1.88;;
78670;SDS011;68277;52.724;6.516;2023-03-14T05:59:06;7.80;;;2.42;;
78670;SDS011;68277;52.724;6.516;2023-03-14T06:01:43;5.15;;;1.95;;
78670;SDS011;68277;52.724;6.516;2023-03-14T06:04:15;11.48;;;2.47;;
78670;SDS011;68277;52.724;6.516;2023-03-14T06:06:43;7.55;;;2.83;;
78670;SDS011;68277;52.724;6.516;2023-03-14T06:09:10;9.98;;;2.42;;
78670;SDS011;68277;52.724;6.516;2023-03-14T06:11:38;8.77;;;2.35;;
78670;SDS011;68277;52.724;6.516;2023-03-14T06:14:05;7.63;;;2.03;;
78670;SDS011;68277;52.724;6.516;2023-03-14T06:16:34;3.65;;;1.85;;
78670;SDS011;68277;52.724;6.516;2023-03-14T06:19:00;8.15;;;2.88;;
78670;SDS011;68277;52.724;6.516;2023-03-14T06:21:28;8.07;;;2.33;;
78670;SDS011;68277;52.724;6.516;2023-03-14T06:24:02;7.05;;;2.92;;
78670;SDS011;68277;52.724;6.516;2023-03-14T06:26:34;13.88;;;3.08;;
78670;SDS011;68277;52.724;6.516;2023-03-14T06:29:01;5.30;;;2.15;;
78670;SDS011;68277;52.724;6.516;2023-03-14T06:31:29;9.18;;;3.03;;
78670;SDS011;68277;52.724;6.516;2023-03-14T06:34:00;10.15;;;2.75;;
78670;SDS011;68277;52.724;6.516;2023-03-14T06:36:29;5.93;;;2.47;;
78670;SDS011;68277;52.724;6.516;2023-03-14T06:41:27;6.97;;;2.15;;
78670;SDS011;68277;52.724;6.516;2023-03-14T06:43:52;5.00;;;2.03;;
78670;SDS011;68277;52.724;6.516;2023-03-14T06:46:23;5.05;;;2.28;;
78670;SDS011;68277;52.724;6.516;2023-03-14T06:48:54;7.07;;;2.05;;
78670;SDS011;68277;52.724;6.516;2023-03-14T06:51:19;5.32;;;2.60;;
78670;SDS011;68277;52.724;6.516;2023-03-14T06:53:47;8.57;;;2.60;;
78670;SDS011;68277;52.724;6.516;2023-03-14T06:56:14;8.05;;;2.17;;
78670;SDS011;68277;52.724;6.516;2023-03-14T06:58:43;4.70;;;2.40;;
78670;SDS011;68277;52.724;6.516;2023-03-14T07:01:21;11.80;;;3.05;;
78670;SDS011;68277;52.724;6.516;2023-03-14T07:03:49;7.38;;;2.15;;
78670;SDS011;68277;52.724;6.516;2023-03-14T07:06:15;8.02;;;2.17;;
78670;SDS011;68277;52.724;6.516;2023-03-14T07:08:41;6.80;;;2.13;;
78670;SDS011;68277;52.724;6.516;2023-03-14T07:11:09;6.80;;;2.30;;
78670;SDS011;68277;52.724;6.516;2023-03-14T07:13:47;7.68;;;3.45;;
78670;SDS011;68277;52.724;6.516;2023-03-14T07:16:13;6.10;;;2.30;;
78670;SDS011;68277;52.724;6.516;2023-03-14T07:18:45;5.28;;;1.05;;
78670;SDS011;68277;52.724;6.516;2023-03-14T07:21:18;1.98;;;0.85;;
78670;SDS011;68277;52.724;6.516;2023-03-14T07:23:43;3.95;;;0.80;;
78670;SDS011;68277;52.724;6.516;2023-03-14T07:26:11;6.18;;;0.93;;
78670;SDS011;68277;52.724;6.516;2023-03-14T07:28:42;1.80;;;0.68;;
78670;SDS011;68277;52.724;6.516;2023-03-14T07:31:12;1.45;;;0.80;;
78670;SDS011;68277;52.724;6.516;2023-03-14T07:33:38;4.05;;;1.35;;
78670;SDS011;68277;52.724;6.516;2023-03-14T07:36:04;3.88;;;1.20;;
78670;SDS011;68277;52.724;6.516;2023-03-14T07:38:30;3.78;;;1.55;;
78670;SDS011;68277;52.724;6.516;2023-03-14T07:41:10;2.10;;;0.90;;
78670;SDS011;68277;52.724;6.516;2023-03-14T07:44:05;2.40;;;0.80;;
78670;SDS011;68277;52.724;6.516;2023-03-14T07:46:31;2.10;;;0.80;;
78670;SDS011;68277;52.724;6.516;2023-03-14T07:48:56;2.75;;;0.40;;
78670;SDS011;68277;52.724;6.516;2023-03-14T07:51:22;2.22;;;0.85;;
78670;SDS011;68277;52.724;6.516;2023-03-14T07:53:47;2.13;;;0.57;;
78670;SDS011;68277;52.724;6.516;2023-03-14T07:56:13;0.90;;;0.22;;
78670;SDS011;68277;52.724;6.516;2023-03-14T07:58:38;0.43;;;0.22;;
78670;SDS011;68277;52.724;6.516;2023-03-14T08:01:04;1.05;;;0.30;;
78670;SDS011;68277;52.724;6.516;2023-03-14T08:03:32;0.57;;;0.50;;
78670;SDS011;68277;52.724;6.516;2023-03-14T08:06:01;1.40;;;0.38;;
78670;SDS011;68277;52.724;6.516;2023-03-14T08:08:26;5.03;;;1.33;;
78670;SDS011;68277;52.724;6.516;2023-03-14T08:10:52;5.40;;;2.17;;
78670;SDS011;68277;52.724;6.516;2023-03-14T08:13:17;1.77;;;1.08;;
78670;SDS011;68277;52.724;6.516;2023-03-14T08:15:46;1.05;;;0.75;;
78670;SDS011;68277;52.724;6.516;2023-03-14T08:18:16;0.30;;;0.30;;
78670;SDS011;68277;52.724;6.516;2023-03-14T08:20:44;2.38;;;0.20;;
78670;SDS011;68277;52.724;6.516;2023-03-14T08:23:09;7.00;;;0.77;;
78670;SDS011;68277;52.724;6.516;2023-03-14T08:25:35;1.75;;;0.40;;
78670;SDS011;68277;52.724;6.516;2023-03-14T08:28:00;0.08;;;0.00;;
78670;SDS011;68277;52.724;6.516;2023-03-14T08:30:26;0.40;;;0.30;;
78670;SDS011;68277;52.724;6.516;2023-03-14T08:32:58;1.92;;;0.30;;
78670;SDS011;68277;52.724;6.516;2023-03-14T08:35:24;0.52;;;0.38;;
78670;SDS011;68277;52.724;6.516;2023-03-14T08:37:50;0.50;;;0.38;;
78670;SDS011;68277;52.724;6.516;2023-03-14T08:40:20;0.70;;;0.63;;
78670;SDS011;68277;52.724;6.516;2023-03-14T08:42:45;2.15;;;0.77;;
78670;SDS011;68277;52.724;6.516;2023-03-14T08:45:12;0.40;;;0.40;;
78670;SDS011;68277;52.724;6.516;2023-03-14T08:47:39;2.30;;;1.00;;
78670;SDS011;68277;52.724;6.516;2023-03-14T08:50:05;0.17;;;0.17;;
78670;SDS011;68277;52.724;6.516;2023-03-14T08:54:57;1.48;;;0.73;;
78670;SDS011;68277;52.724;6.516;2023-03-14T08:57:22;3.58;;;0.60;;
78670;SDS011;68277;52.724;6.516;2023-03-14T08:59:53;1.23;;;0.60;;
78670;SDS011;68277;52.724;6.516;2023-03-14T09:02:20;1.80;;;0.80;;
78670;SDS011;68277;52.724;6.516;2023-03-14T09:04:46;1.45;;;0.50;;
78670;SDS011;68277;52.724;6.516;2023-03-14T09:07:17;1.27;;;0.65;;
78670;SDS011;68277;52.724;6.516;2023-03-14T09:09:43;3.95;;;1.33;;
78670;SDS011;68277;52.724;6.516;2023-03-14T09:12:09;2.47;;;0.80;;
78670;SDS011;68277;52.724;6.516;2023-03-14T09:14:34;2.20;;;0.90;;
78670;SDS011;68277;52.724;6.516;2023-03-14T09:17:00;2.47;;;0.85;;
78670;SDS011;68277;52.724;6.516;2023-03-14T09:19:25;4.78;;;1.52;;
78670;SDS011;68277;52.724;6.516;2023-03-14T09:21:51;1.33;;;0.90;;
78670;SDS011;68277;52.724;6.516;2023-03-14T09:24:17;3.50;;;1.02;;
78670;SDS011;68277;52.724;6.516;2023-03-14T09:26:42;3.72;;;0.85;;
78670;SDS011;68277;52.724;6.516;2023-03-14T09:29:08;1.52;;;0.60;;
78670;SDS011;68277;52.724;6.516;2023-03-14T09:31:34;4.68;;;0.88;;
78670;SDS011;68277;52.724;6.516;2023-03-14T09:34:00;3.13;;;0.50;;
78670;SDS011;68277;52.724;6.516;2023-03-14T09:36:25;4.43;;;0.80;;
78670;SDS011;68277;52.724;6.516;2023-03-14T09:38:50;2.80;;;0.93;;
78670;SDS011;68277;52.724;6.516;2023-03-14T09:41:35;1.77;;;0.50;;
78670;SDS011;68277;52.724;6.516;2023-03-14T09:44:05;5.70;;;1.00;;
78670;SDS011;68277;52.724;6.516;2023-03-14T09:46:37;1.38;;;0.63;;
78670;SDS011;68277;52.724;6.516;2023-03-14T09:49:09;2.88;;;0.77;;
78670;SDS011;68277;52.724;6.516;2023-03-14T09:51:37;2.90;;;0.82;;
78670;SDS011;68277;52.724;6.516;2023-03-14T09:54:04;2.70;;;1.38;;
78670;SDS011;68277;52.724;6.516;2023-03-14T09:56:33;2.38;;;1.17;;
78670;SDS011;68277;52.724;6.516;2023-03-14T10:01:32;15.35;;;2.17;;
78670;SDS011;68277;52.724;6.516;2023-03-14T10:04:00;6.63;;;1.42;;
78670;SDS011;68277;52.724;6.516;2023-03-14T10:06:32;3.45;;;1.75;;
78670;SDS011;68277;52.724;6.516;2023-03-14T10:08:57;6.80;;;1.50;;
78670;SDS011;68277;52.724;6.516;2023-03-14T10:11:23;8.43;;;1.63;;
78670;SDS011;68277;52.724;6.516;2023-03-14T10:13:53;2.28;;;1.20;;
78670;SDS011;68277;52.724;6.516;2023-03-14T10:16:28;8.38;;;1.05;;
78670;SDS011;68277;52.724;6.516;2023-03-14T10:18:59;3.15;;;1.17;;
78670;SDS011;68277;52.724;6.516;2023-03-14T10:21:28;7.10;;;1.55;;
78670;SDS011;68277;52.724;6.516;2023-03-14T10:24:06;6.10;;;1.25;;
78670;SDS011;68277;52.724;6.516;2023-03-14T10:29:19;7.32;;;2.35;;
78670;SDS011;68277;52.724;6.516;2023-03-14T10:36:54;2.30;;;0.80;;
78670;SDS011;68277;52.724;6.516;2023-03-14T10:39:22;6.15;;;1.88;;
78670;SDS011;68277;52.724;6.516;2023-03-14T10:41:52;6.90;;;1.52;;
78670;SDS011;68277;52.724;6.516;2023-03-14T10:44:56;3.13;;;0.70;;
78670;SDS011;68277;52.724;6.516;2023-03-14T10:47:25;4.57;;;1.73;;
78670;SDS011;68277;52.724;6.516;2023-03-14T10:49:53;8.68;;;1.88;;
78670;SDS011;68277;52.724;6.516;2023-03-14T10:54:54;4.63;;;0.95;;
78670;SDS011;68277;52.724;6.516;2023-03-14T10:57:22;1.60;;;1.20;;
78670;SDS011;68277;52.724;6.516;2023-03-14T11:02:30;5.82;;;1.67;;
78670;SDS011;68277;52.724;6.516;2023-03-14T11:11:06;7.13;;;1.75;;
78670;SDS011;68277;52.724;6.516;2023-03-14T11:13:36;3.63;;;1.02;;
78670;SDS011;68277;52.724;6.516;2023-03-14T11:16:27;5.82;;;1.50;;
78670;SDS011;68277;52.724;6.516;2023-03-14T11:21:54;2.03;;;0.82;;
78670;SDS011;68277;52.724;6.516;2023-03-14T11:32:28;6.10;;;1.00;;
78670;SDS011;68277;52.724;6.516;2023-03-14T11:34:57;7.07;;;1.20;;
78670;SDS011;68277;52.724;6.516;2023-03-14T11:37:30;8.50;;;1.08;;
78670;SDS011;68277;52.724;6.516;2023-03-14T11:39:59;4.88;;;1.30;;
78670;SDS011;68277;52.724;6.516;2023-03-14T11:42:38;9.80;;;1.17;;
78670;SDS011;68277;52.724;6.516;2023-03-14T11:45:15;2.28;;;0.80;;
78670;SDS011;68277;52.724;6.516;2023-03-14T11:47:57;10.50;;;1.55;;
78670;SDS011;68277;52.724;6.516;2023-03-14T11:50:32;2.58;;;0.75;;
78670;SDS011;68277;52.724;6.516;2023-03-14T11:53:04;3.72;;;0.73;;
78670;SDS011;68277;52.724;6.516;2023-03-14T11:55:37;6.60;;;1.55;;
78670;SDS011;68277;52.724;6.516;2023-03-14T11:58:09;2.67;;;1.15;;
78670;SDS011;68277;52.724;6.516;2023-03-14T12:00:37;4.32;;;0.73;;
78670;SDS011;68277;52.724;6.516;2023-03-14T12:09:02;2.70;;;1.00;;
78670;SDS011;68277;52.724;6.516;2023-03-14T12:14:15;3.80;;;0.88;;
78670;SDS011;68277;52.724;6.516;2023-03-14T12:16:45;4.47;;;0.70;;
78670;SDS011;68277;52.724;6.516;2023-03-14T12:21:48;7.03;;;1.08;;
78670;SDS011;68277;52.724;6.516;2023-03-14T12:24:17;5.15;;;1.15;;
78670;SDS011;68277;52.724;6.516;2023-03-14T12:26:57;1.23;;;0.68;;
78670;SDS011;68277;52.724;6.516;2023-03-14T12:29:24;4.20;;;1.30;;
78670;SDS011;68277;52.724;6.516;2023-03-14T12:34:26;5.40;;;0.88;;
78670;SDS011;68277;52.724;6.516;2023-03-14T12:37:06;2.78;;;0.57;;
78670;SDS011;68277;52.724;6.516;2023-03-14T12:45:43;6.03;;;0.90;;
78670;SDS011;68277;52.724;6.516;2023-03-14T12:48:31;2.30;;;0.80;;
78670;SDS011;68277;52.724;6.516;2023-03-14T12:51:02;1.95;;;0.55;;
78670;SDS011;68277;52.724;6.516;2023-03-14T12:56:24;5.13;;;0.93;;
78670;SDS011;68277;52.724;6.516;2023-03-14T13:01:24;5.07;;;0.93;;
78670;SDS011;68277;52.724;6.516;2023-03-14T13:03:51;2.75;;;0.80;;
78670;SDS011;68277;52.724;6.516;2023-03-14T13:12:09;2.33;;;0.57;;
78670;SDS011;68277;52.724;6.516;2023-03-14T13:14:40;5.50;;;0.90;;
78670;SDS011;68277;52.724;6.516;2023-03-14T13:17:10;2.58;;;0.60;;
78670;SDS011;68277;52.724;6.516;2023-03-14T13:19:37;10.15;;;1.25;;
78670;SDS011;68277;52.724;6.516;2023-03-14T13:22:04;2.70;;;0.90;;
78670;SDS011;68277;52.724;6.516;2023-03-14T13:24:57;4.75;;;0.93;;
78670;SDS011;68277;52.724;6.516;2023-03-14T13:27:25;4.25;;;0.98;;
78670;SDS011;68277;52.724;6.516;2023-03-14T13:29:57;4.00;;;1.05;;
78670;SDS011;68277;52.724;6.516;2023-03-14T13:32:27;5.45;;;1.15;;
78670;SDS011;68277;52.724;6.516;2023-03-14T13:34:57;3.90;;;0.82;;
78670;SDS011;68277;52.724;6.516;2023-03-14T13:37:23;4.32;;;0.70;;
78670;SDS011;68277;52.724;6.516;2023-03-14T13:39:54;3.38;;;0.60;;
78670;SDS011;68277;52.724;6.516;2023-03-14T13:42:26;9.50;;;0.95;;
78670;SDS011;68277;52.724;6.516;2023-03-14T13:44:54;0.82;;;0.40;;
78670;SDS011;68277;52.724;6.516;2023-03-14T13:47:22;2.47;;;0.45;;
78670;SDS011;68277;52.724;6.516;2023-03-14T13:49:49;1.35;;;0.52;;
78670;SDS011;68277;52.724;6.516;2023-03-14T13:52:29;1.55;;;0.40;;
78670;SDS011;68277;52.724;6.516;2023-03-14T13:54:55;1.13;;;0.40;;
78670;SDS011;68277;52.724;6.516;2023-03-14T13:57:22;3.30;;;0.50;;
78670;SDS011;68277;52.724;6.516;2023-03-14T14:00:06;7.65;;;1.35;;
78670;SDS011;68277;52.724;6.516;2023-03-14T14:02:38;2.85;;;0.50;;
78670;SDS011;68277;52.724;6.516;2023-03-14T14:05:04;3.67;;;0.93;;
78670;SDS011;68277;52.724;6.516;2023-03-14T14:07:30;5.40;;;0.98;;
78670;SDS011;68277;52.724;6.516;2023-03-14T14:09:55;2.88;;;0.57;;
78670;SDS011;68277;52.724;6.516;2023-03-14T14:12:28;4.90;;;0.40;;
78670;SDS011;68277;52.724;6.516;2023-03-14T14:15:01;5.32;;;0.63;;
78670;SDS011;68277;52.724;6.516;2023-03-14T14:17:36;1.77;;;0.57;;
78670;SDS011;68277;52.724;6.516;2023-03-14T14:22:56;1.40;;;0.63;;
78670;SDS011;68277;52.724;6.516;2023-03-14T14:25:23;4.10;;;0.70;;
78670;SDS011;68277;52.724;6.516;2023-03-14T14:27:49;2.78;;;0.70;;
78670;SDS011;68277;52.724;6.516;2023-03-14T14:32:48;1.40;;;0.52;;
78670;SDS011;68277;52.724;6.516;2023-03-14T14:35:22;1.42;;;0.95;;
78670;SDS011;68277;52.724;6.516;2023-03-14T14:37:49;2.28;;;0.70;;
78670;SDS011;68277;52.724;6.516;2023-03-14T14:40:20;3.10;;;0.63;;
78670;SDS011;68277;52.724;6.516;2023-03-14T14:42:47;3.78;;;0.73;;
78670;SDS011;68277;52.724;6.516;2023-03-14T14:45:19;6.57;;;0.70;;
78670;SDS011;68277;52.724;6.516;2023-03-14T14:50:30;3.03;;;0.88;;
78670;SDS011;68277;52.724;6.516;2023-03-14T14:53:20;1.55;;;0.45;;
78670;SDS011;68277;52.724;6.516;2023-03-14T14:55:53;1.48;;;0.60;;
78670;SDS011;68277;52.724;6.516;2023-03-14T14:58:25;1.48;;;0.65;;
78670;SDS011;68277;52.724;6.516;2023-03-14T15:01:13;1.80;;;0.70;;
78670;SDS011;68277;52.724;6.516;2023-03-14T15:03:41;1.70;;;0.60;;
78670;SDS011;68277;52.724;6.516;2023-03-14T15:06:10;1.60;;;0.85;;
78670;SDS011;68277;52.724;6.516;2023-03-14T15:08:38;1.55;;;0.80;;
78670;SDS011;68277;52.724;6.516;2023-03-14T15:11:04;1.95;;;0.70;;
78670;SDS011;68277;52.724;6.516;2023-03-14T15:13:30;2.80;;;0.65;;
78670;SDS011;68277;52.724;6.516;2023-03-14T15:15:56;3.70;;;1.05;;
78670;SDS011;68277;52.724;6.516;2023-03-14T15:18:22;2.92;;;0.75;;
78670;SDS011;68277;52.724;6.516;2023-03-14T15:20:50;0.98;;;0.47;;
78670;SDS011;68277;52.724;6.516;2023-03-14T15:23:17;6.05;;;0.75;;
78670;SDS011;68277;52.724;6.516;2023-03-14T15:25:44;3.67;;;0.60;;
78670;SDS011;68277;52.724;6.516;2023-03-14T15:28:16;5.72;;;1.33;;
78670;SDS011;68277;52.724;6.516;2023-03-14T15:30:50;1.90;;;0.65;;
78670;SDS011;68277;52.724;6.516;2023-03-14T15:33:17;1.48;;;0.75;;
78670;SDS011;68277;52.724;6.516;2023-03-14T15:35:43;5.35;;;0.85;;
78670;SDS011;68277;52.724;6.516;2023-03-14T15:38:12;2.25;;;1.02;;
78670;SDS011;68277;52.724;6.516;2023-03-14T15:40:46;4.32;;;0.90;;
78670;SDS011;68277;52.724;6.516;2023-03-14T15:43:13;2.05;;;0.57;;
78670;SDS011;68277;52.724;6.516;2023-03-14T15:45:40;3.20;;;0.98;;
78670;SDS011;68277;52.724;6.516;2023-03-14T15:48:06;4.32;;;1.13;;
78670;SDS011;68277;52.724;6.516;2023-03-14T15:50:39;1.55;;;0.60;;
78670;SDS011;68277;52.724;6.516;2023-03-14T15:53:04;6.68;;;1.05;;
78670;SDS011;68277;52.724;6.516;2023-03-14T15:55:30;3.22;;;1.38;;
78670;SDS011;68277;52.724;6.516;2023-03-14T15:57:55;2.15;;;1.25;;
78670;SDS011;68277;52.724;6.516;2023-03-14T16:00:22;4.88;;;1.13;;
78670;SDS011;68277;52.724;6.516;2023-03-14T16:02:49;3.03;;;0.52;;
78670;SDS011;68277;52.724;6.516;2023-03-14T16:05:15;6.10;;;1.02;;
78670;SDS011;68277;52.724;6.516;2023-03-14T16:07:43;4.68;;;1.23;;
78670;SDS011;68277;52.724;6.516;2023-03-14T16:10:09;0.68;;;0.50;;
78670;SDS011;68277;52.724;6.516;2023-03-14T16:12:36;6.57;;;0.95;;
78670;SDS011;68277;52.724;6.516;2023-03-14T16:15:02;4.88;;;1.27;;
78670;SDS011;68277;52.724;6.516;2023-03-14T16:17:27;3.35;;;0.73;;
78670;SDS011;68277;52.724;6.516;2023-03-14T16:19:53;4.72;;;1.17;;
78670;SDS011;68277;52.724;6.516;2023-03-14T16:22:21;4.15;;;0.88;;
78670;SDS011;68277;52.724;6.516;2023-03-14T16:24:47;5.68;;;1.13;;
78670;SDS011;68277;52.724;6.516;2023-03-14T16:27:12;1.95;;;1.50;;
78670;SDS011;68277;52.724;6.516;2023-03-14T16:29:38;5.47;;;0.98;;